Time;durP1;ratioP1;P1;durP2;ratioP2;P2;SDS_P1;SDS_P2;PMS_P1;PMS_P2;Temp;Humidity;BMP_temperature;BMP_pressure;BME280_temperature;BME280_humidity;BME280_pressure;Samples;Min_cycle;Max_cycle;Signal;HPM_P1;HPM_P2
2022/04/21 00:00:27;;;;;;;11.75;7.57;;;;;;;11.18;87.60;101489.03;5092451;28;20024;-69
2022/04/21 00:02:52;;;;;;;14.70;8.43;;;;;;;11.18;87.31;101494.28;5090160;28;20058;-69
2022/04/21 00:05:18;;;;;;;12.38;8.18;;;;;;;11.16;87.55;101491.63;5092547;28;20042;-69
2022/04/21 00:07:44;;;;;;;11.13;8.00;;;;;;;11.19;87.57;101490.81;5092041;28;20035;-70
2022/04/21 00:10:09;;;;;;;15.15;8.45;;;;;;;11.11;89.03;101488.03;5092879;28;20031;-70
2022/04/21 00:12:35;;;;;;;12.68;8.55;;;;;;;11.12;88.09;101484.50;5092565;28;20032;-69
2022/04/21 00:15:03;;;;;;;12.75;7.75;;;;;;;11.04;87.69;101479.06;5091870;28;20441;-69
2022/04/21 00:17:28;;;;;;;10.60;7.65;;;;;;;10.84;88.53;101480.28;5091913;28;20480;-69
2022/04/21 00:19:53;;;;;;;13.70;8.15;;;;;;;10.92;88.91;101481.38;5092233;28;20032;-69
2022/04/21 00:25:03;;;;;;;11.65;8.18;;;;;;;10.84;88.68;101482.91;5092250;28;20517;-69
2022/04/21 00:27:28;;;;;;;13.48;8.55;;;;;;;10.88;88.10;101476.88;5092648;28;20198;-70
2022/04/21 00:29:56;;;;;;;11.15;9.13;;;;;;;10.84;88.79;101480.28;5092328;28;20433;-70
2022/04/21 00:32:21;;;;;;;10.73;7.72;;;;;;;10.85;88.83;101479.44;5092287;28;20107;-70
2022/04/21 00:34:46;;;;;;;11.80;8.65;;;;;;;10.92;87.76;101481.38;5091862;28;20055;-70
2022/04/21 00:37:12;;;;;;;14.20;7.70;;;;;;;10.73;88.63;101480.91;5091862;28;20052;-69
2022/04/21 00:39:38;;;;;;;12.57;8.35;;;;;;;10.73;89.57;101486.19;5092345;28;20110;-69
2022/04/21 00:42:03;;;;;;;12.60;8.70;;;;;;;10.76;89.03;101481.00;5092171;28;20479;-69
2022/04/21 00:44:29;;;;;;;10.43;7.93;;;;;;;10.74;89.15;101482.72;5091734;28;20399;-69
2022/04/21 00:46:57;;;;;;;9.23;7.40;;;;;;;10.69;88.83;101476.44;5091693;28;20020;-69
2022/04/21 00:49:25;;;;;;;12.82;8.45;;;;;;;10.69;89.13;101479.06;5092250;28;20055;-70
2022/04/21 00:51:51;;;;;;;12.05;7.75;;;;;;;10.67;89.83;101485.13;5090459;28;20024;-70
2022/04/21 00:54:17;;;;;;;13.60;8.32;;;;;;;10.59;90.05;101482.28;5092141;28;20039;-70
2022/04/21 00:56:43;;;;;;;11.93;8.85;;;;;;;10.56;89.63;101476.94;5092070;28;20024;-70
2022/04/21 00:59:10;;;;;;;11.25;8.18;;;;;;;10.46;90.42;101476.69;5090025;28;20524;-70
2022/04/21 01:04:20;;;;;;;12.02;8.48;;;;;;;10.34;91.41;101480.72;5094815;28;20038;-70
2022/04/21 01:06:46;;;;;;;10.88;8.32;;;;;;;10.39;90.46;101484.38;5094734;28;20032;-69
2022/04/21 01:09:11;;;;;;;10.45;8.55;;;;;;;10.22;92.00;101486.50;5094711;28;20027;-70
2022/04/21 01:11:38;;;;;;;11.27;8.98;;;;;;;10.36;91.22;101477.28;5093677;28;20080;-70
2022/04/21 01:14:04;;;;;;;13.57;8.20;;;;;;;10.44;91.42;101472.22;5095321;28;20035;-70
2022/04/21 01:16:29;;;;;;;12.75;8.38;;;;;;;10.38;90.98;101477.34;5077189;28;20082;-69
2022/04/21 01:18:56;;;;;;;10.02;7.93;;;;;;;10.40;91.72;101473.88;5095449;28;20032;-71
2022/04/21 01:21:21;;;;;;;15.07;7.80;;;;;;;10.31;90.96;101478.88;5096068;28;20028;-69
2022/04/21 01:23:46;;;;;;;15.07;8.88;;;;;;;10.21;91.59;101467.19;5095092;28;20035;-69
2022/04/21 01:26:12;;;;;;;13.70;8.52;;;;;;;10.20;90.38;101475.03;5091948;28;20437;-69
2022/04/21 01:28:37;;;;;;;13.40;8.13;;;;;;;10.12;91.49;101474.84;5095458;28;20439;-70
2022/04/21 01:31:03;;;;;;;12.48;8.73;;;;;;;10.21;91.22;101468.94;5095396;28;20108;-69
2022/04/21 01:33:28;;;;;;;11.98;8.40;;;;;;;10.13;92.16;101467.00;5095611;28;20028;-70
2022/04/21 01:35:53;;;;;;;11.63;8.38;;;;;;;10.17;91.82;101469.69;5095109;28;20027;-69
2022/04/21 01:41:11;;;;;;;14.35;8.55;;;;;;;10.18;91.54;101474.13;5094963;28;20035;-69
2022/04/21 01:43:38;;;;;;;12.32;7.90;;;;;;;10.17;90.91;101464.44;5094198;28;20020;-69
2022/04/21 01:46:04;;;;;;;11.88;7.10;;;;;;;10.13;91.28;101461.72;5093088;28;20034;-70
2022/04/21 01:48:30;;;;;;;10.77;7.75;;;;;;;10.15;91.88;101468.75;5095007;28;20031;-70
2022/04/21 01:50:55;;;;;;;9.38;7.53;;;;;;;9.86;92.80;101472.34;5093935;28;20024;-70
2022/04/21 01:53:21;;;;;;;11.15;7.85;;;;;;;9.95;92.57;101467.34;5094933;28;20032;-70
2022/04/21 01:55:49;;;;;;;18.73;8.90;;;;;;;9.91;92.54;101464.59;5094892;28;20074;-69
2022/04/21 01:58:14;;;;;;;12.10;8.25;;;;;;;9.83;93.10;101466.09;5094203;28;20085;-69
2022/04/21 02:00:42;;;;;;;14.73;8.50;;;;;;;9.83;94.00;101455.59;5087194;28;20024;-70
2022/04/21 02:03:08;;;;;;;13.25;8.05;;;;;;;9.70;94.04;101460.47;5094309;28;20502;-69
2022/04/21 02:05:33;;;;;;;14.55;7.97;;;;;;;9.77;93.53;101461.56;5093842;28;20106;-70
2022/04/21 02:08:00;;;;;;;10.00;7.43;;;;;;;9.82;94.26;101457.34;5094306;28;20498;-70
2022/04/21 02:10:25;;;;;;;14.60;8.98;;;;;;;9.82;93.73;101454.69;5094343;28;20024;-70
2022/04/21 02:12:51;;;;;;;11.80;8.13;;;;;;;9.84;94.06;101452.13;5095078;28;20020;-70
2022/04/21 02:15:20;;;;;;;13.00;7.90;;;;;;;9.68;94.44;101449.00;5093644;28;20031;-70
2022/04/21 02:17:46;;;;;;;14.27;8.63;;;;;;;9.64;94.44;101455.03;5093126;28;20048;-70
2022/04/21 02:20:16;;;;;;;14.63;8.63;;;;;;;9.60;93.77;101453.16;5094152;28;20027;-70
2022/04/21 02:22:45;;;;;;;10.68;8.05;;;;;;;9.62;94.75;101451.47;5093298;28;20430;-70
2022/04/21 02:25:13;;;;;;;11.13;7.97;;;;;;;9.60;94.34;101454.06;5094650;28;20036;-70
2022/04/21 02:27:41;;;;;;;11.02;8.18;;;;;;;9.66;94.14;101448.09;5093727;28;20020;-70
2022/04/21 02:30:08;;;;;;;9.98;7.15;;;;;;;9.64;93.86;101455.03;5075847;28;20063;-70
2022/04/21 02:32:34;;;;;;;10.93;7.97;;;;;;;9.58;94.50;101444.34;5094225;28;20063;-70
2022/04/21 02:34:59;;;;;;;11.05;7.95;;;;;;;9.64;95.01;101444.50;5094218;28;20035;-70
2022/04/21 02:37:25;;;;;;;12.52;8.55;;;;;;;9.61;95.06;101447.06;5094256;28;20464;-70
2022/04/21 02:39:51;;;;;;;12.38;8.85;;;;;;;9.74;94.31;101451.84;5094137;28;20028;-69
2022/04/21 02:42:18;;;;;;;10.63;7.55;;;;;;;9.74;95.72;101441.31;5093583;28;20051;-71
2022/04/21 02:44:43;;;;;;;11.70;8.05;;;;;;;9.74;94.71;101443.97;5091433;28;20043;-70
2022/04/21 02:47:09;;;;;;;10.27;7.78;;;;;;;9.65;94.46;101441.06;5092271;28;20460;-69
2022/04/21 02:49:35;;;;;;;11.43;7.95;;;;;;;9.60;95.63;101447.91;5093975;28;20157;-69
2022/04/21 02:52:04;;;;;;;10.80;8.55;;;;;;;9.58;94.91;101439.09;5093785;28;20047;-70
2022/04/21 02:57:22;;;;;;;15.40;8.25;;;;;;;9.41;96.35;101442.09;5093591;28;20098;-70
2022/04/21 02:59:52;;;;;;;13.18;8.70;;;;;;;9.44;96.37;101447.44;5092429;28;20028;-70
2022/04/21 03:02:19;;;;;;;9.60;7.82;;;;;;;9.45;95.62;101446.59;5091948;28;20043;-70
2022/04/21 03:04:45;;;;;;;10.88;8.00;;;;;;;9.21;95.81;101443.19;5072387;28;20086;-69
2022/04/21 03:07:11;;;;;;;12.70;7.70;;;;;;;9.23;97.08;101444.13;5090252;28;20479;-69
2022/04/21 03:09:36;;;;;;;13.10;8.25;;;;;;;9.24;96.91;101444.19;5092507;28;20020;-69
2022/04/21 03:12:02;;;;;;;13.50;7.82;;;;;;;9.25;98.26;101443.34;5093058;28;20042;-68
2022/04/21 03:14:28;;;;;;;13.73;8.07;;;;;;;9.22;98.29;101445.84;5098170;28;20028;-68
2022/04/21 03:16:53;;;;;;;12.25;8.15;;;;;;;9.20;98.79;101436.19;5091189;28;20415;-69
2022/04/21 03:19:18;;;;;;;15.40;8.13;;;;;;;9.20;97.58;101436.19;5091155;28;20060;-69
2022/04/21 03:24:29;;;;;;;10.77;8.27;;;;;;;9.19;97.60;101434.38;5091587;28;20043;-71
2022/04/21 03:26:55;;;;;;;11.90;8.38;;;;;;;9.17;96.77;101436.06;5089043;28;20020;-70
2022/04/21 03:29:20;;;;;;;12.57;8.30;;;;;;;9.19;96.70;101434.38;5093495;28;20024;-69
2022/04/21 03:31:48;;;;;;;10.30;7.95;;;;;;;9.05;96.95;101434.81;5092883;28;20472;-69
2022/04/21 03:34:15;;;;;;;12.38;7.60;;;;;;;9.05;97.65;101442.69;5090970;28;20542;-71
2022/04/21 03:36:51;;;;;;;11.43;7.90;;;;;;;9.08;97.05;101436.66;5092535;28;20020;-71
2022/04/21 03:39:20;;;;;;;10.55;8.45;;;;;;;9.17;96.68;101436.97;5093461;28;20032;-71
2022/04/21 03:41:46;;;;;;;10.15;7.28;;;;;;;9.17;97.38;101441.31;5092914;28;20027;-71
2022/04/21 03:44:12;;;;;;;12.85;7.85;;;;;;;9.26;97.08;101446.84;5093338;28;20459;-70
2022/04/21 03:46:38;;;;;;;12.27;7.70;;;;;;;9.19;96.32;101444.88;5092733;28;20020;-71
2022/04/21 03:49:04;;;;;;;11.25;7.53;;;;;;;9.14;95.83;101441.22;5092338;28;20023;-69
2022/04/21 03:51:31;;;;;;;10.45;6.90;;;;;;;9.20;96.19;101434.44;5092414;28;20023;-71
2022/04/21 03:53:56;;;;;;;10.18;7.28;;;;;;;9.17;96.56;101442.22;5092741;28;20039;-70
2022/04/21 03:56:21;;;;;;;10.52;7.75;;;;;;;9.13;95.55;101437.72;5091897;28;20020;-71
2022/04/21 03:58:47;;;;;;;9.60;7.30;;;;;;;9.13;95.92;101434.16;5108351;28;20032;-71
2022/04/21 04:01:12;;;;;;;12.55;8.05;;;;;;;9.05;95.72;101434.81;5091952;28;20031;-70
2022/04/21 04:03:38;;;;;;;10.35;7.38;;;;;;;8.95;96.56;101440.59;5091510;28;20070;-70
2022/04/21 04:06:04;;;;;;;10.68;7.65;;;;;;;8.87;96.67;101439.47;5091388;28;20458;-70
2022/04/21 04:11:13;;;;;;;;;;;;;;;8.88;97.21;101444.75;5081828;28;20042;-71
2022/04/21 04:13:38;;;;;;;13.10;7.70;;;;;;;8.94;97.19;101433.59;5092743;28;20514;-71
2022/04/21 04:16:04;;;;;;;11.27;8.30;;;;;;;8.71;97.14;101438.09;5092361;28;20292;-70
2022/04/21 04:18:29;;;;;;;10.07;7.80;;;;;;;8.73;97.65;101445.13;5088877;28;20064;-70
2022/04/21 04:20:55;;;;;;;11.23;7.28;;;;;;;8.78;97.66;101440.94;5090603;28;20425;-71
2022/04/21 04:23:21;;;;;;;11.88;7.72;;;;;;;8.75;96.34;101438.22;5087216;28;20032;-70
2022/04/21 04:25:47;;;;;;;14.32;7.97;;;;;;;8.86;97.24;101445.59;5087624;28;20031;-71
2022/04/21 04:28:13;;;;;;;11.35;8.73;;;;;;;8.82;96.85;101439.31;5090589;28;20020;-71
2022/04/21 04:30:40;;;;;;;10.95;8.00;;;;;;;8.68;97.15;101441.50;5089968;28;20038;-71
2022/04/21 04:33:06;;;;;;;8.77;7.15;;;;;;;8.56;97.89;101438.44;5090378;28;20447;-70
2022/04/21 04:35:31;;;;;;;14.07;8.07;;;;;;;8.63;98.68;101448.31;5095782;28;20028;-71
2022/04/21 04:37:57;;;;;;;10.27;7.18;;;;;;;8.68;99.37;101445.84;5094969;28;20476;-71
2022/04/21 04:40:23;;;;;;;14.38;8.02;;;;;;;8.66;98.91;101453.66;5095341;28;20043;-71
2022/04/21 04:42:49;;;;;;;12.10;7.28;;;;;;;8.47;99.45;101448.63;5096507;28;20024;-70
2022/04/21 04:47:58;;;;;;;12.68;7.40;;;;;;;8.70;98.60;101454.66;5096005;28;20564;-70
2022/04/21 04:50:23;;;;;;;11.00;8.05;;;;;;;8.73;99.59;101444.25;5095702;28;20028;-71
2022/04/21 04:52:48;;;;;;;12.43;7.40;;;;;;;8.81;99.09;101450.66;5096024;28;20028;-70
2022/04/21 04:55:14;;;;;;;12.90;7.80;;;;;;;8.62;99.14;101443.00;5095247;28;20035;-70
2022/04/21 04:57:40;;;;;;;15.75;8.20;;;;;;;8.73;100.00;101444.25;5094401;28;20036;-70
2022/04/21 05:00:09;;;;;;;10.60;7.38;;;;;;;8.72;99.13;101443.38;5095616;28;20039;-70
2022/04/21 05:02:34;;;;;;;11.70;7.95;;;;;;;8.66;100.00;101453.66;5091269;28;20460;-71
2022/04/21 05:05:00;;;;;;;15.07;8.10;;;;;;;8.74;99.39;101449.56;5092672;28;20035;-71
2022/04/21 05:07:26;;;;;;;9.93;6.95;;;;;;;8.77;99.31;101447.03;5089785;28;20020;-71
2022/04/21 05:09:51;;;;;;;11.68;7.70;;;;;;;8.76;99.31;101445.25;5092148;28;20054;-71
2022/04/21 05:12:18;;;;;;;11.93;7.10;;;;;;;8.80;99.41;101454.13;5094840;28;20459;-71
2022/04/21 05:14:44;;;;;;;9.93;7.60;;;;;;;8.84;98.84;101448.13;5092943;28;20034;-71
2022/04/21 05:17:09;;;;;;;9.55;7.00;;;;;;;8.85;98.07;101454.28;5090086;28;20400;-71
2022/04/21 05:19:35;;;;;;;8.45;6.75;;;;;;;8.95;97.77;101445.84;5089991;28;20391;-71
2022/04/21 05:22:03;;;;;;;11.70;7.43;;;;;;;9.00;97.66;101446.91;5090616;28;20044;-71
2022/04/21 05:24:31;;;;;;;11.18;7.30;;;;;;;8.99;97.55;101450.38;5092452;28;20391;-71
2022/04/21 05:26:57;;;;;;;10.50;6.70;;;;;;;9.02;98.12;101453.13;5092819;28;20081;-71
2022/04/21 05:32:08;;;;;;;9.95;7.50;;;;;;;9.13;96.80;101455.19;5091052;28;20038;-70
2022/04/21 05:34:33;;;;;;;9.93;7.45;;;;;;;9.08;97.60;101458.53;5093315;28;20538;-72
2022/04/21 05:37:00;;;;;;;14.65;7.35;;;;;;;9.13;97.60;101463.06;5095360;28;20024;-71
2022/04/21 05:39:28;;;;;;;11.77;7.45;;;;;;;9.17;96.59;101452.72;5094158;28;20471;-71
2022/04/21 05:41:55;;;;;;;10.90;7.05;;;;;;;9.08;96.88;101460.28;5094431;28;20901;-71
2022/04/21 05:44:21;;;;;;;13.00;7.53;;;;;;;9.15;96.86;101456.13;5092934;28;20028;-73
2022/04/21 05:46:46;;;;;;;9.43;7.43;;;;;;;9.17;97.01;101455.34;5086875;28;20028;-72
2022/04/21 05:49:12;;;;;;;10.27;7.05;;;;;;;9.26;96.85;101454.72;5088492;28;20038;-72
2022/04/21 05:51:38;;;;;;;16.30;7.40;;;;;;;9.31;97.54;101460.16;5091043;28;20028;-74
2022/04/21 05:54:05;;;;;;;9.60;6.93;;;;;;;9.40;98.77;101461.31;5088653;28;20042;-74
2022/04/21 05:56:32;;;;;;;9.68;7.50;;;;;;;9.42;97.09;101458.75;5088912;28;20052;-73
2022/04/21 05:58:58;;;;;;;13.45;7.20;;;;;;;9.43;97.64;101464.03;5092285;28;20020;-73
2022/04/21 06:01:24;;;;;;;9.15;6.22;;;;;;;9.57;96.07;101468.84;5094033;28;20028;-73
2022/04/21 06:03:50;;;;;;;11.23;7.38;;;;;;;9.60;95.31;101463.66;5090753;28;20789;-73
2022/04/21 06:06:15;;;;;;;10.75;7.65;;;;;;;9.53;95.89;101466.94;5090351;28;20051;-73
2022/04/21 06:08:41;;;;;;;11.10;6.72;;;;;;;9.62;95.62;101459.34;5092836;28;20052;-74
2022/04/21 06:11:06;;;;;;;13.25;7.30;;;;;;;9.62;96.00;101459.34;5093451;28;20036;-73
2022/04/21 06:13:32;;;;;;;9.23;6.82;;;;;;;9.71;95.00;101471.88;5093746;28;20019;-73
2022/04/21 06:15:58;;;;;;;9.55;6.30;;;;;;;9.79;93.79;101468.66;5094206;28;20024;-73
2022/04/21 06:18:24;;;;;;;9.43;6.72;;;;;;;9.82;93.53;101459.97;5093105;28;20059;-74
2022/04/21 06:20:51;;;;;;;10.68;6.80;;;;;;;9.85;94.83;101464.38;5093359;28;20032;-73
2022/04/21 06:23:16;;;;;;;13.23;6.85;;;;;;;9.89;95.23;101466.25;5094034;28;20471;-73
2022/04/21 06:25:42;;;;;;;12.52;6.97;;;;;;;10.01;95.19;101473.63;5092923;28;20027;-73
2022/04/21 06:28:08;;;;;;;9.07;7.30;;;;;;;10.05;94.34;101463.25;5094618;28;20052;-73
2022/04/21 06:30:34;;;;;;;11.48;6.75;;;;;;;10.03;95.24;101462.31;5094158;28;20031;-72
2022/04/21 06:32:59;;;;;;;8.52;6.35;;;;;;;10.17;93.24;101460.06;5094567;28;20460;-72
2022/04/21 06:35:26;;;;;;;11.75;7.68;;;;;;;10.15;92.63;101456.50;5094326;28;20050;-72
2022/04/21 06:37:55;;;;;;;8.60;6.88;;;;;;;10.23;91.77;101456.75;5094486;28;20028;-72
2022/04/21 06:40:21;;;;;;;8.95;6.03;;;;;;;10.26;91.34;101454.19;5093837;28;20364;-71
2022/04/21 06:42:47;;;;;;;8.55;5.65;;;;;;;10.23;90.92;101451.47;5093400;28;20081;-70
2022/04/21 06:48:03;;;;;;;12.10;6.47;;;;;;;10.24;91.60;101453.22;5094002;28;20035;-71
2022/04/21 06:50:33;;;;;;;7.70;5.75;;;;;;;10.30;91.84;101438.50;5094022;28;20103;-70
2022/04/21 06:52:59;;;;;;;10.75;6.45;;;;;;;10.36;92.22;101448.34;5093054;28;20476;-71
2022/04/21 06:55:25;;;;;;;8.80;6.18;;;;;;;10.37;91.61;101451.88;5094472;28;20490;-70
2022/04/21 06:57:50;;;;;;;12.82;6.50;;;;;;;10.38;90.23;101445.78;5093122;28;20107;-70
2022/04/21 07:00:16;;;;;;;8.25;6.10;;;;;;;10.45;89.64;101448.59;5093895;28;20069;-70
2022/04/21 07:02:42;;;;;;;11.18;6.15;;;;;;;10.49;89.56;101438.19;5092584;28;20035;-69
2022/04/21 07:05:13;;;;;;;7.55;5.90;;;;;;;10.54;88.78;101447.06;5108392;28;20027;-69
2022/04/21 07:07:42;;;;;;;9.75;5.65;;;;;;;10.58;89.17;101449.81;5093531;28;20043;-71
2022/04/21 07:10:09;;;;;;;11.38;6.13;;;;;;;10.50;90.23;101442.56;5093351;28;20031;-70
2022/04/21 07:12:35;;;;;;;8.85;6.65;;;;;;;10.56;90.05;101450.63;5093512;28;20084;-70
2022/04/21 07:15:02;;;;;;;12.00;6.32;;;;;;;10.63;90.90;101448.22;5093658;28;20031;-69
2022/04/21 07:17:28;;;;;;;10.50;6.00;;;;;;;10.66;91.17;101452.63;5094020;28;20539;-69
2022/04/21 07:19:53;;;;;;;9.18;6.38;;;;;;;10.66;91.07;101449.13;5093786;28;20028;-71
2022/04/21 07:22:25;;;;;;;7.90;5.50;;;;;;;10.80;89.74;101446.00;5094135;28;20024;-69
2022/04/21 07:24:51;;;;;;;6.68;5.55;;;;;;;10.89;89.07;101439.19;5093778;28;20032;-71
2022/04/21 07:27:17;;;;;;;12.95;5.68;;;;;;;10.82;89.97;101443.41;5093351;28;20107;-71
2022/04/21 07:29:42;;;;;;;10.60;5.93;;;;;;;10.88;90.37;101448.84;5093682;28;20093;-71
2022/04/21 07:32:08;;;;;;;8.55;5.57;;;;;;;11.01;88.69;101442.09;5092020;28;20111;-72
2022/04/21 07:34:34;;;;;;;7.18;5.70;;;;;;;11.00;87.68;101448.25;5092521;28;20455;-70
2022/04/21 07:36:59;;;;;;;8.80;5.80;;;;;;;11.11;89.00;101441.50;5093490;28;20103;-70
2022/04/21 07:39:24;;;;;;;7.63;5.65;;;;;;;11.18;89.25;101446.88;5092106;28;20115;-70
2022/04/21 07:41:50;;;;;;;14.52;5.85;;;;;;;11.12;89.18;101445.91;5093272;28;20398;-70
2022/04/21 07:44:16;;;;;;;8.95;5.60;;;;;;;11.27;89.40;101439.19;5093235;28;20047;-71
2022/04/21 07:46:41;;;;;;;9.57;5.80;;;;;;;11.35;89.49;101445.53;5092152;28;20463;-71
2022/04/21 07:51:50;;;;;;;7.93;6.20;;;;;;;11.58;86.98;101445.19;5093744;28;20549;-71
2022/04/21 07:54:15;;;;;;;7.63;5.57;;;;;;;11.68;86.55;101444.53;5093393;28;20028;-69
2022/04/21 07:56:40;;;;;;;8.55;5.18;;;;;;;11.75;86.05;101440.28;5092950;28;20032;-70
2022/04/21 07:59:06;;;;;;;6.85;5.22;;;;;;;11.87;85.70;101434.34;5092242;28;20547;-73
2022/04/21 08:01:31;;;;;;;8.32;5.13;;;;;;;12.03;85.52;101431.22;5090755;28;20383;-72
2022/04/21 08:04:02;;;;;;;6.38;4.85;;;;;;;12.00;85.20;101435.53;5092923;28;20472;-72
2022/04/21 08:06:28;;;;;;;6.03;5.10;;;;;;;12.17;84.20;101441.13;5093179;28;20555;-73
2022/04/21 08:08:55;;;;;;;6.97;5.78;;;;;;;12.14;83.81;101444.63;5092735;28;20016;-73
2022/04/21 08:11:21;;;;;;;5.95;5.10;;;;;;;12.24;84.05;101440.41;5092950;28;20080;-73
2022/04/21 08:13:47;;;;;;;6.05;4.88;;;;;;;12.43;82.14;101453.09;5090389;28;20027;-72
2022/04/21 08:16:12;;;;;;;8.48;4.88;;;;;;;12.55;81.84;101446.28;5092352;28;20035;-70
2022/04/21 08:18:37;;;;;;;7.63;5.28;;;;;;;12.58;81.53;101447.22;5092039;28;20100;-70
2022/04/21 08:21:03;;;;;;;6.60;4.93;;;;;;;12.63;80.98;101448.19;5108662;28;20090;-70
2022/04/21 08:23:28;;;;;;;8.82;5.07;;;;;;;12.67;80.75;101445.59;5092189;28;20020;-70
2022/04/21 08:34:05;;;;;;;7.22;4.35;;;;;;;13.40;77.79;101456.50;5091091;28;19957;-73
2022/04/21 08:36:31;;;;;;;6.07;3.65;;;;;;;13.51;75.88;101454.03;5091933;28;20020;-70
2022/04/21 08:38:56;;;;;;;5.75;3.95;;;;;;;13.58;76.10;101455.88;5091219;28;20037;-71
2022/04/21 08:41:26;;;;;;;8.52;3.88;;;;;;;13.65;74.87;101459.50;5092793;28;20379;-71
2022/04/21 08:43:54;;;;;;;7.13;4.90;;;;;;;13.76;76.20;101449.94;5093006;28;20092;-71
2022/04/21 08:46:24;;;;;;;6.32;4.20;;;;;;;13.94;75.41;101451.03;5092938;28;20111;-71
2022/04/21 08:48:51;;;;;;;8.32;4.40;;;;;;;14.11;73.86;101454.78;5090927;28;20161;-70
2022/04/21 08:51:19;;;;;;;5.75;4.18;;;;;;;14.09;74.25;101453.88;5091710;28;20027;-70
2022/04/21 08:53:44;;;;;;;7.05;4.25;;;;;;;14.07;75.44;101463.56;5092206;28;20028;-70
2022/04/21 08:56:10;;;;;;;7.93;3.85;;;;;;;14.27;74.17;101453.22;5092035;28;20030;-70
2022/04/21 08:58:35;;;;;;;7.32;3.65;;;;;;;14.41;72.68;101456.00;5088911;28;20043;-71
2022/04/21 09:01:01;;;;;;;4.40;4.00;;;;;;;14.54;73.17;101450.81;5090139;28;20054;-71
2022/04/21 09:03:26;;;;;;;4.18;3.60;;;;;;;14.54;72.51;101454.38;5088830;28;20035;-71
2022/04/21 09:05:52;;;;;;;7.20;3.85;;;;;;;14.75;71.02;101451.06;5090137;28;20028;-72
2022/04/21 09:08:22;;;;;;;6.55;4.30;;;;;;;14.87;69.94;101449.38;5092188;28;20020;-71
2022/04/21 09:11:01;;;;;;;5.82;3.70;;;;;;;14.90;71.21;101445.00;5089955;28;20040;-71
2022/04/21 09:13:37;;;;;;;5.63;4.35;;;;;;;14.81;73.06;101447.56;5084957;28;20031;-71
2022/04/21 09:16:08;;;;;;;5.15;4.07;;;;;;;15.10;70.81;101447.81;5092637;28;20032;-71
2022/04/21 09:18:44;;;;;;;5.72;4.22;;;;;;;15.36;69.96;101438.28;5090244;28;20039;-72
2022/04/21 09:21:15;;;;;;;5.95;4.05;;;;;;;15.47;69.26;101440.09;5091411;28;20246;-71
2022/04/21 09:23:45;;;;;;;14.63;4.53;;;;;;;15.42;68.38;101438.31;5094371;28;20467;-71
2022/04/21 09:26:17;;;;;;;6.35;4.30;;;;;;;15.52;70.85;101449.00;5096029;28;20157;-72
2022/04/21 09:28:52;;;;;;;7.07;4.05;;;;;;;15.72;68.05;101437.63;5095999;28;20108;-71
2022/04/21 09:31:17;;;;;;;5.05;4.18;;;;;;;15.85;66.92;101439.44;5095964;28;20020;-71
2022/04/21 09:33:45;;;;;;;9.40;4.38;;;;;;;16.03;66.58;101437.75;5095417;28;20498;-71
2022/04/21 09:36:10;;;;;;;5.28;4.18;;;;;;;15.96;65.53;101428.88;5095748;28;20039;-69
2022/04/21 09:38:37;;;;;;;9.07;3.60;;;;;;;15.98;65.54;101435.09;5094622;28;20111;-70
2022/04/21 09:41:11;;;;;;;4.70;3.30;;;;;;;16.11;63.04;101424.50;5095858;28;20019;-71
2022/04/21 09:43:37;;;;;;;7.65;3.58;;;;;;;16.22;61.42;101417.44;5095946;28;20024;-70
2022/04/21 09:46:21;;;;;;;4.90;3.40;;;;;;;16.28;59.34;101421.91;5094814;28;20024;-71
2022/04/21 09:48:52;;;;;;;5.70;3.50;;;;;;;16.45;60.05;101427.25;5084224;28;20097;-70
2022/04/21 09:51:22;;;;;;;6.20;3.50;;;;;;;16.52;58.45;101419.28;5095282;28;20471;-70
2022/04/21 09:53:48;;;;;;;6.00;3.63;;;;;;;16.69;59.60;101418.41;5094481;28;20028;-71
2022/04/21 09:56:13;;;;;;;4.28;3.83;;;;;;;16.81;57.84;101412.22;5094237;28;20051;-70
2022/04/21 09:58:39;;;;;;;4.07;3.35;;;;;;;17.03;55.52;101408.66;5095533;28;20028;-70
2022/04/21 10:01:05;;;;;;;3.30;3.00;;;;;;;17.14;55.70;101413.97;5095455;28;20032;-70
2022/04/21 10:03:34;;;;;;;4.95;3.33;;;;;;;17.09;54.11;101405.16;5093628;28;20038;-70
2022/04/21 10:06:01;;;;;;;5.00;3.15;;;;;;;17.23;55.88;101406.88;5095137;28;20408;-70
2022/04/21 10:08:29;;;;;;;8.25;3.50;;;;;;;17.18;53.31;101399.78;5095460;28;20020;-70
2022/04/21 10:10:55;;;;;;;5.38;2.80;;;;;;;17.22;51.69;101391.81;5094629;28;20487;-70
2022/04/21 10:13:21;;;;;;;4.03;2.97;;;;;;;17.37;52.06;101389.13;5093883;28;20548;-70
2022/04/21 10:15:46;;;;;;;5.75;2.78;;;;;;;17.41;52.26;101393.53;5095272;28;20103;-70
2022/04/21 10:18:13;;;;;;;3.63;2.30;;;;;;;17.45;50.96;101379.34;5095012;28;20082;-71
2022/04/21 10:20:40;;;;;;;5.85;2.10;;;;;;;17.72;48.96;101379.25;5095230;28;20043;-71
2022/04/21 10:23:10;;;;;;;6.82;2.85;;;;;;;17.86;45.48;101375.63;5094350;28;20024;-70
2022/04/21 10:25:40;;;;;;;3.25;2.55;;;;;;;18.13;44.36;101381.69;5095208;28;20464;-70
2022/04/21 10:28:41;;;;;;;4.75;2.80;;;;;;;18.03;46.14;101374.69;5094040;28;20114;-71
2022/04/21 10:31:30;;;;;;;5.28;3.00;;;;;;;18.24;45.93;101370.97;5080936;28;20047;-70
2022/04/21 10:34:05;;;;;;;6.93;2.35;;;;;;;18.55;43.63;101360.09;5090969;28;20026;-69
2022/04/21 10:36:37;;;;;;;8.98;3.25;;;;;;;18.51;43.00;101363.69;5094842;28;20016;-70
2022/04/21 10:39:23;;;;;;;4.28;2.63;;;;;;;18.28;42.83;101346.09;5089834;28;20032;-70
2022/04/21 10:42:06;;;;;;;3.67;2.83;;;;;;;18.64;46.67;101356.47;5091807;28;20031;-70
2022/04/21 10:44:40;;;;;;;4.90;2.93;;;;;;;18.84;44.60;101357.19;5092717;28;20596;-70
2022/04/21 10:47:41;;;;;;;4.63;3.08;;;;;;;18.81;44.70;101351.84;5093344;28;20285;-70
2022/04/21 10:50:13;;;;;;;6.18;2.30;;;;;;;18.80;41.06;101339.44;5088575;28;20442;-71
2022/04/21 10:58:51;;;;;;;6.22;2.10;;;;;;;19.13;40.34;101342.69;5097441;28;20121;-71
2022/04/21 11:01:22;;;;;;;4.25;2.33;;;;;;;19.37;39.59;101340.63;5083591;28;20032;-70
2022/04/21 11:04:06;;;;;;;4.38;2.70;;;;;;;19.41;40.18;101331.72;5086880;28;20498;-70
2022/04/21 11:06:40;;;;;;;3.70;2.50;;;;;;;19.37;37.75;101330.84;5093047;28;20493;-71
2022/04/21 11:09:05;;;;;;;3.00;2.30;;;;;;;19.46;37.49;101320.97;5093820;28;20044;-71
2022/04/21 11:11:46;;;;;;;4.70;2.20;;;;;;;19.52;36.94;101324.44;5093623;28;20055;-72
2022/04/21 11:14:27;;;;;;;5.47;2.45;;;;;;;19.62;38.83;101325.19;5076172;28;20107;-71
2022/04/21 11:16:52;;;;;;;3.60;1.70;;;;;;;19.79;36.91;101311.63;5094875;28;20016;-71
2022/04/21 11:19:32;;;;;;;2.08;1.88;;;;;;;19.76;36.40;101311.63;5092086;28;20035;-71
2022/04/21 11:22:06;;;;;;;3.65;2.15;;;;;;;19.91;40.26;101321.25;5088393;28;20031;-71
2022/04/21 11:24:58;;;;;;;4.32;2.17;;;;;;;20.21;35.67;101311.91;5090269;28;20052;-71
2022/04/21 11:27:24;;;;;;;2.88;1.95;;;;;;;20.33;38.07;101310.81;5087042;28;20046;-71
2022/04/21 11:29:50;;;;;;;1.95;1.60;;;;;;;20.55;35.95;101310.44;5091646;28;20032;-71
2022/04/21 11:32:16;;;;;;;2.65;1.20;;;;;;;20.45;32.56;101296.34;5092916;28;20114;-71
2022/04/21 11:34:42;;;;;;;5.53;1.63;;;;;;;20.89;32.83;101301.84;5093502;28;20378;-71
2022/04/21 11:37:07;;;;;;;4.70;1.50;;;;;;;21.22;35.14;101305.63;5093078;28;20024;-72
2022/04/21 11:39:38;;;;;;;10.80;2.00;;;;;;;21.14;32.74;101301.38;5093155;28;20027;-72
2022/04/21 11:42:04;;;;;;;3.28;1.92;;;;;;;21.31;33.82;101299.22;5090994;28;20054;-72
2022/04/21 11:44:29;;;;;;;2.90;1.98;;;;;;;21.53;32.46;101299.66;5091055;28;20118;-71
2022/04/21 11:46:54;;;;;;;2.92;2.03;;;;;;;21.82;33.18;101303.50;5094088;28;20023;-71
2022/04/21 11:49:20;;;;;;;4.65;1.63;;;;;;;21.85;33.00;101295.41;5079712;28;20131;-72
2022/04/21 11:51:52;;;;;;;2.17;0.95;;;;;;;21.67;29.01;101279.75;5092751;28;20038;-71
2022/04/21 11:54:17;;;;;;;2.75;1.08;;;;;;;21.47;29.12;101280.16;5090944;28;20070;-71
2022/04/21 11:56:51;;;;;;;8.38;2.17;;;;;;;21.95;27.64;101274.63;5088912;28;20475;-72
2022/04/21 11:59:17;;;;;;;2.65;1.83;;;;;;;22.39;27.01;101274.47;5089818;28;20035;-72
2022/04/21 12:07:19;;;;;;;1.70;1.13;;;;;;;22.76;28.24;101283.31;5077335;28;20170;-71
2022/04/21 12:09:50;;;;;;;3.92;1.42;;;;;;;22.14;28.69;101264.34;5089333;28;20024;-71
2022/04/21 12:12:20;;;;;;;1.90;1.80;;;;;;;22.06;28.76;101271.69;5091074;28;20032;-72